MLH8321 EYVI-LGIR
Flight info
| Callsign | MLH8321 |
|---|---|
| Flight time | N/A |
| Altitude | 34000 |
| Route | UPASI DCT VABER L735 SUWGI M857 GERVI Z179 KEFIR DCT ROBTU/N0455F350 DCT KENIN DCT OSTOV N127 NIKTI/N0423F230 N127 LMO/N0455F360 UG33 NEVRA/N0450F370 UT514 XAVIS |
| Aircraft | A320/M-SDE3FGHIRWY/LB1 |
Departure
| Time | 2026-05-09 08:03 |
|---|---|
| Airport | Vilnius International Airport (EYVI) |
Arrival
| Time | N/A |
|---|---|
| Airport | Heraklion International Nikos Kazantzakis Airport (LGIR) |
| Time | Latitude | Longitude | Altitude | Speed | Heading |
|---|---|---|---|---|---|
| 2026-05-09 07:35 | 54.64081 | 25.28287 | 639 ft | 0 kts | 77° |
| 2026-05-09 07:53 | 54.64081 | 25.28285 | 643 ft | 2 kts | 77° |
| 2026-05-09 07:53 | 54.64076 | 25.28242 | 639 ft | 4 kts | 77° |
| 2026-05-09 07:54 | 54.64071 | 25.28201 | 637 ft | 4 kts | 111° |
| 2026-05-09 07:54 | 54.64085 | 25.28179 | 645 ft | 1 kts | 167° |
| 2026-05-09 07:54 | 54.64089 | 25.28177 | 644 ft | 0 kts | 167° |
| 2026-05-09 07:57 | 54.64089 | 25.28178 | 644 ft | 0 kts | 167° |
| 2026-05-09 07:57 | 54.64078 | 25.28182 | 638 ft | 4 kts | 167° |
| 2026-05-09 07:58 | 54.64030 | 25.28200 | 636 ft | 11 kts | 167° |
| 2026-05-09 07:58 | 54.63934 | 25.28237 | 638 ft | 17 kts | 167° |
| 2026-05-09 07:58 | 54.63806 | 25.28287 | 635 ft | 19 kts | 167° |
| 2026-05-09 07:58 | 54.63670 | 25.28339 | 625 ft | 21 kts | 167° |
| 2026-05-09 07:59 | 54.63554 | 25.28364 | 615 ft | 16 kts | 192° |
| 2026-05-09 07:59 | 54.63437 | 25.28286 | 610 ft | 20 kts | 201° |
| 2026-05-09 07:59 | 54.63351 | 25.28227 | 615 ft | 20 kts | 201° |
| 2026-05-09 07:59 | 54.63192 | 25.28117 | 610 ft | 18 kts | 202° |
| 2026-05-09 08:00 | 54.63072 | 25.28033 | 607 ft | 21 kts | 202° |
| 2026-05-09 08:00 | 54.62973 | 25.27964 | 605 ft | 24 kts | 201° |
| 2026-05-09 08:00 | 54.62819 | 25.27858 | 601 ft | 23 kts | 202° |
| 2026-05-09 08:00 | 54.62675 | 25.27757 | 601 ft | 21 kts | 201° |
| 2026-05-09 08:01 | 54.62549 | 25.27671 | 603 ft | 16 kts | 199° |
| 2026-05-09 08:01 | 54.62471 | 25.27720 | 613 ft | 10 kts | 142° |
| 2026-05-09 08:01 | 54.62426 | 25.27790 | 612 ft | 8 kts | 127° |
| 2026-05-09 08:01 | 54.62425 | 25.27879 | 604 ft | 8 kts | 60° |
| 2026-05-09 08:02 | 54.62474 | 25.27927 | 602 ft | 9 kts | 21° |
| 2026-05-09 08:02 | 54.62640 | 25.28043 | 600 ft | 55 kts | 22° |
| 2026-05-09 08:02 | 54.63191 | 25.28423 | 606 ft | 112 kts | 21° |
| 2026-05-09 08:02 | 54.64030 | 25.29003 | 812 ft | 136 kts | 21° |
| 2026-05-09 08:03 | 54.64911 | 25.29611 | 1523 ft | 138 kts | 22° |
| 2026-05-09 08:03 | 54.65819 | 25.30235 | 2177 ft | 142 kts | 24° |
| 2026-05-09 08:03 | 54.66759 | 25.30878 | 2742 ft | 151 kts | 27° |
| 2026-05-09 08:03 | 54.67794 | 25.31624 | 3070 ft | 173 kts | 28° |
| 2026-05-09 08:04 | 54.68974 | 25.32488 | 3330 ft | 196 kts | 28° |
| 2026-05-09 08:04 | 54.70312 | 25.33486 | 3508 ft | 224 kts | 29° |
| 2026-05-09 08:04 | 54.71805 | 25.34483 | 4008 ft | 240 kts | 18° |
| 2026-05-09 08:04 | 54.73560 | 25.34420 | 4411 ft | 268 kts | 343° |
| 2026-05-09 08:05 | 54.75114 | 25.32555 | 5097 ft | 279 kts | 307° |
| 2026-05-09 08:05 | 54.75825 | 25.29462 | 5879 ft | 280 kts | 272° |
| 2026-05-09 08:05 | 54.75476 | 25.26182 | 6682 ft | 280 kts | 247° |
| 2026-05-09 08:05 | 54.74675 | 25.23074 | 7454 ft | 282 kts | 243° |
| 2026-05-09 08:06 | 54.73802 | 25.20006 | 8231 ft | 286 kts | 241° |
| 2026-05-09 08:06 | 54.72896 | 25.16909 | 8991 ft | 290 kts | 240° |
| 2026-05-09 08:06 | 54.72001 | 25.13833 | 9813 ft | 290 kts | 241° |
| 2026-05-09 08:06 | 54.71096 | 25.10677 | 10377 ft | 300 kts | 242° |
| 2026-05-09 08:07 | 54.70145 | 25.07315 | 10519 ft | 322 kts | 242° |
| 2026-05-09 08:07 | 54.69135 | 25.03719 | 10648 ft | 343 kts | 243° |
| 2026-05-09 08:07 | 54.68055 | 24.99842 | 10791 ft | 363 kts | 243° |
| 2026-05-09 08:07 | 54.66958 | 24.95894 | 11231 ft | 371 kts | 244° |
| 2026-05-09 08:08 | 54.65832 | 24.91840 | 11847 ft | 375 kts | 244° |
| 2026-05-09 08:08 | 54.64698 | 24.87762 | 12482 ft | 378 kts | 244° |
| 2026-05-09 08:08 | 54.63551 | 24.83649 | 13134 ft | 382 kts | 244° |
| 2026-05-09 08:08 | 54.62388 | 24.79497 | 13773 ft | 386 kts | 244° |
| 2026-05-09 08:09 | 54.61215 | 24.75317 | 14349 ft | 388 kts | 244° |
| 2026-05-09 08:09 | 54.60031 | 24.71110 | 14916 ft | 391 kts | 244° |
| 2026-05-09 08:09 | 54.58838 | 24.66875 | 15469 ft | 394 kts | 244° |
| 2026-05-09 08:09 | 54.57633 | 24.62612 | 15992 ft | 398 kts | 244° |
| 2026-05-09 08:10 | 54.56427 | 24.58360 | 16608 ft | 398 kts | 245° |
| 2026-05-09 08:10 | 54.55191 | 24.54015 | 17240 ft | 400 kts | 245° |
| 2026-05-09 08:10 | 54.53976 | 24.49754 | 17803 ft | 402 kts | 245° |
| 2026-05-09 08:10 | 54.52737 | 24.45411 | 18354 ft | 405 kts | 245° |
| 2026-05-09 08:11 | 54.51490 | 24.41035 | 18819 ft | 408 kts | 244° |
| 2026-05-09 08:11 | 54.50238 | 24.36637 | 19284 ft | 411 kts | 245° |
| 2026-05-09 08:11 | 54.48975 | 24.32210 | 19761 ft | 413 kts | 245° |
| 2026-05-09 08:11 | 54.47703 | 24.27772 | 20255 ft | 415 kts | 244° |
| 2026-05-09 08:12 | 54.45122 | 24.18802 | 21040 ft | 422 kts | 244° |
| 2026-05-09 08:12 | 54.43807 | 24.14254 | 21439 ft | 425 kts | 245° |
| 2026-05-09 08:12 | 54.42483 | 24.09687 | 21830 ft | 427 kts | 245° |
| 2026-05-09 08:13 | 54.41157 | 24.05108 | 22211 ft | 429 kts | 245° |
| 2026-05-09 08:13 | 54.39835 | 24.00550 | 22764 ft | 426 kts | 245° |
| 2026-05-09 08:13 | 54.38512 | 23.95996 | 23204 ft | 426 kts | 245° |
| 2026-05-09 08:13 | 54.37188 | 23.91441 | 23565 ft | 428 kts | 245° |
| 2026-05-09 08:14 | 54.35856 | 23.86859 | 23866 ft | 431 kts | 245° |
| 2026-05-09 08:14 | 54.34517 | 23.82266 | 24162 ft | 432 kts | 245° |
| 2026-05-09 08:14 | 54.33167 | 23.77654 | 24481 ft | 433 kts | 244° |
| 2026-05-09 08:14 | 54.31808 | 23.73038 | 24761 ft | 435 kts | 244° |
| 2026-05-09 08:15 | 54.30436 | 23.68390 | 25044 ft | 437 kts | 244° |
| 2026-05-09 08:15 | 54.29070 | 23.63762 | 25466 ft | 435 kts | 245° |
| 2026-05-09 08:15 | 54.27710 | 23.59152 | 25922 ft | 433 kts | 245° |
| 2026-05-09 08:15 | 54.26350 | 23.54552 | 26334 ft | 433 kts | 244° |
| 2026-05-09 08:16 | 54.24994 | 23.49967 | 26767 ft | 431 kts | 244° |
| 2026-05-09 08:16 | 54.23644 | 23.45421 | 27313 ft | 427 kts | 244° |
| 2026-05-09 08:16 | 54.22300 | 23.40911 | 27736 ft | 426 kts | 244° |
| 2026-05-09 08:16 | 54.20950 | 23.36392 | 28120 ft | 427 kts | 244° |
| 2026-05-09 08:17 | 54.19601 | 23.31873 | 28541 ft | 426 kts | 244° |
| 2026-05-09 08:17 | 54.18255 | 23.27371 | 28991 ft | 425 kts | 244° |
| 2026-05-09 08:17 | 54.16909 | 23.22890 | 29432 ft | 424 kts | 244° |
| 2026-05-09 08:17 | 54.15560 | 23.18406 | 29886 ft | 423 kts | 244° |
| 2026-05-09 08:18 | 54.14216 | 23.13942 | 30301 ft | 423 kts | 244° |
| 2026-05-09 08:18 | 54.12874 | 23.09488 | 30654 ft | 422 kts | 244° |
| 2026-05-09 08:18 | 54.11527 | 23.05036 | 31003 ft | 422 kts | 244° |
| 2026-05-09 08:18 | 54.10176 | 23.00601 | 31351 ft | 422 kts | 243° |
| 2026-05-09 08:19 | 54.08591 | 22.96466 | 31688 ft | 423 kts | 232° |
| 2026-05-09 08:19 | 54.06550 | 22.92886 | 32201 ft | 420 kts | 222° |
| 2026-05-09 08:19 | 54.04154 | 22.90030 | 32634 ft | 422 kts | 211° |
| 2026-05-09 08:19 | 54.01465 | 22.88024 | 32996 ft | 425 kts | 200° |
| 2026-05-09 08:20 | 53.98575 | 22.86812 | 33341 ft | 427 kts | 195° |
| 2026-05-09 08:20 | 53.95675 | 22.85729 | 33673 ft | 427 kts | 195° |
| 2026-05-09 08:20 | 53.92774 | 22.84638 | 33989 ft | 427 kts | 195° |
| 2026-05-09 08:20 | 53.89865 | 22.83535 | 34108 ft | 430 kts | 195° |
| 2026-05-09 08:21 | 53.83941 | 22.81275 | 34126 ft | 443 kts | 195° |
| 2026-05-09 08:21 | 53.77858 | 22.78974 | 34125 ft | 449 kts | 195° |
| 2026-05-09 08:22 | 53.71743 | 22.76682 | 34125 ft | 450 kts | 195° |
| 2026-05-09 08:22 | 53.65631 | 22.74388 | 34125 ft | 450 kts | 195° |
| 2026-05-09 08:23 | 53.59526 | 22.72102 | 34112 ft | 449 kts | 195° |
| 2026-05-09 08:23 | 53.53419 | 22.69833 | 34131 ft | 449 kts | 195° |
| 2026-05-09 08:24 | 53.47363 | 22.67583 | 34130 ft | 448 kts | 195° |
| 2026-05-09 08:24 | 53.41273 | 22.65304 | 34133 ft | 448 kts | 195° |
| 2026-05-09 08:25 | 53.35191 | 22.63041 | 34116 ft | 447 kts | 195° |
| 2026-05-09 08:25 | 53.29106 | 22.60807 | 34134 ft | 446 kts | 195° |
| 2026-05-09 08:26 | 53.23048 | 22.58588 | 34141 ft | 444 kts | 196° |
| 2026-05-09 08:26 | 53.17022 | 22.56368 | 34151 ft | 442 kts | 196° |
| 2026-05-09 08:27 | 53.11056 | 22.54186 | 34145 ft | 441 kts | 196° |
| 2026-05-09 08:27 | 53.05068 | 22.52007 | 34128 ft | 440 kts | 196° |
| 2026-05-09 08:28 | 52.99091 | 22.49842 | 34131 ft | 439 kts | 196° |
| 2026-05-09 08:28 | 52.93125 | 22.47672 | 34134 ft | 438 kts | 196° |
| 2026-05-09 08:29 | 52.87169 | 22.45520 | 34139 ft | 438 kts | 196° |
| 2026-05-09 08:29 | 52.81203 | 22.43372 | 34125 ft | 437 kts | 196° |
| 2026-05-09 08:30 | 52.75287 | 22.41238 | 34134 ft | 437 kts | 196° |
| 2026-05-09 08:30 | 52.69309 | 22.39088 | 34143 ft | 437 kts | 196° |
| 2026-05-09 08:31 | 52.63357 | 22.36958 | 34141 ft | 437 kts | 196° |
| 2026-05-09 08:31 | 52.57413 | 22.34832 | 34130 ft | 437 kts | 196° |
| 2026-05-09 08:32 | 52.51500 | 22.32730 | 34143 ft | 437 kts | 196° |
| 2026-05-09 08:33 | 52.42578 | 22.29581 | 34142 ft | 437 kts | 195° |
| 2026-05-09 08:33 | 52.36632 | 22.27489 | 34127 ft | 437 kts | 195° |
| 2026-05-09 08:34 | 52.30681 | 22.25395 | 34139 ft | 437 kts | 195° |
| 2026-05-09 08:34 | 52.24738 | 22.23311 | 34145 ft | 437 kts | 195° |
| 2026-05-09 08:35 | 52.18781 | 22.21227 | 34142 ft | 437 kts | 195° |
| 2026-05-09 08:35 | 52.12769 | 22.19780 | 34145 ft | 440 kts | 188° |
| 2026-05-09 08:36 | 52.06665 | 22.19146 | 34164 ft | 438 kts | 188° |
| 2026-05-09 08:36 | 52.00579 | 22.18517 | 34171 ft | 437 kts | 188° |
| 2026-05-09 08:37 | 51.94510 | 22.17886 | 34162 ft | 437 kts | 188° |
| 2026-05-09 08:37 | 51.88446 | 22.17253 | 34167 ft | 436 kts | 188° |
| 2026-05-09 08:38 | 51.83417 | 22.16746 | 34157 ft | 435 kts | 188° |
| 2026-05-09 08:38 | 51.77376 | 22.16124 | 34168 ft | 434 kts | 188° |
| 2026-05-09 08:39 | 51.71351 | 22.15490 | 34172 ft | 433 kts | 188° |
| 2026-05-09 08:39 | 51.65327 | 22.14867 | 34171 ft | 433 kts | 188° |
| 2026-05-09 08:40 | 51.59315 | 22.14252 | 34160 ft | 432 kts | 188° |
| 2026-05-09 08:40 | 51.53299 | 22.13641 | 34167 ft | 432 kts | 188° |
| 2026-05-09 08:41 | 51.47301 | 22.13033 | 34169 ft | 431 kts | 188° |
| 2026-05-09 08:41 | 51.41358 | 22.12422 | 34172 ft | 429 kts | 188° |
| 2026-05-09 08:42 | 51.35410 | 22.11815 | 34178 ft | 427 kts | 188° |
| 2026-05-09 08:42 | 51.29477 | 22.11220 | 34177 ft | 426 kts | 188° |
| 2026-05-09 08:43 | 51.23557 | 22.10625 | 34178 ft | 426 kts | 188° |
| 2026-05-09 08:43 | 51.17641 | 22.10023 | 34177 ft | 425 kts | 188° |
| 2026-05-09 08:44 | 51.11731 | 22.09426 | 34165 ft | 425 kts | 188° |
| 2026-05-09 08:44 | 51.05845 | 22.08835 | 34176 ft | 424 kts | 188° |
| 2026-05-09 08:45 | 50.99994 | 22.08255 | 34180 ft | 423 kts | 188° |
| 2026-05-09 08:45 | 50.94116 | 22.07668 | 34178 ft | 423 kts | 188° |
| 2026-05-09 08:46 | 50.88235 | 22.07077 | 34164 ft | 423 kts | 188° |
| 2026-05-09 08:46 | 50.82364 | 22.06498 | 34175 ft | 422 kts | 188° |
| 2026-05-09 08:47 | 50.76487 | 22.05922 | 34145 ft | 422 kts | 188° |
| 2026-05-09 08:47 | 50.70647 | 22.05345 | 34190 ft | 418 kts | 189° |
| 2026-05-09 08:48 | 50.64844 | 22.04773 | 34185 ft | 416 kts | 189° |
| 2026-05-09 08:48 | 50.59121 | 22.04206 | 34191 ft | 414 kts | 188° |
| 2026-05-09 08:49 | 50.53332 | 22.03637 | 34188 ft | 413 kts | 188° |
| 2026-05-09 08:49 | 50.47599 | 22.03078 | 34176 ft | 412 kts | 188° |
| 2026-05-09 08:50 | 50.41865 | 22.02517 | 34189 ft | 412 kts | 188° |
| 2026-05-09 08:50 | 50.36131 | 22.01966 | 34181 ft | 412 kts | 188° |
| 2026-05-09 08:51 | 50.30448 | 22.01421 | 34183 ft | 412 kts | 188° |
| 2026-05-09 08:51 | 50.24685 | 22.00868 | 34185 ft | 412 kts | 188° |
| 2026-05-09 08:52 | 50.18958 | 22.00303 | 34186 ft | 411 kts | 188° |
| 2026-05-09 08:52 | 50.13244 | 21.99746 | 34175 ft | 411 kts | 188° |
| 2026-05-09 08:53 | 50.07529 | 21.99207 | 34156 ft | 411 kts | 188° |
| 2026-05-09 08:53 | 50.01812 | 21.98663 | 34184 ft | 410 kts | 188° |
| 2026-05-09 08:54 | 49.96127 | 21.98118 | 34191 ft | 409 kts | 188° |
| 2026-05-09 08:54 | 49.90458 | 21.97573 | 34185 ft | 408 kts | 188° |
| 2026-05-09 08:55 | 49.84794 | 21.97029 | 34186 ft | 407 kts | 188° |
| 2026-05-09 08:55 | 49.79135 | 21.96495 | 34185 ft | 407 kts | 188° |
| 2026-05-09 08:56 | 49.73517 | 21.95967 | 34178 ft | 407 kts | 188° |
| 2026-05-09 08:56 | 49.67830 | 21.95424 | 34160 ft | 406 kts | 188° |
| 2026-05-09 08:57 | 49.62229 | 21.94899 | 34172 ft | 405 kts | 188° |
| 2026-05-09 08:57 | 49.56599 | 21.94368 | 34171 ft | 405 kts | 188° |
| 2026-05-09 08:58 | 49.50979 | 21.93835 | 34173 ft | 404 kts | 188° |
| 2026-05-09 08:58 | 49.45354 | 21.93308 | 34159 ft | 404 kts | 187° |
| 2026-05-09 08:59 | 49.39740 | 21.92786 | 34125 ft | 404 kts | 187° |
| 2026-05-09 08:59 | 49.34139 | 21.92118 | 34134 ft | 402 kts | 192° |
| 2026-05-09 09:00 | 49.28618 | 21.90791 | 34134 ft | 402 kts | 192° |
| 2026-05-09 09:00 | 49.23090 | 21.89466 | 34139 ft | 402 kts | 192° |
| 2026-05-09 09:01 | 49.17596 | 21.88156 | 34138 ft | 402 kts | 192° |
| 2026-05-09 09:01 | 49.12059 | 21.86844 | 34144 ft | 402 kts | 192° |
| 2026-05-09 09:02 | 49.06505 | 21.85537 | 34144 ft | 402 kts | 192° |
| 2026-05-09 09:02 | 49.01013 | 21.84235 | 34124 ft | 402 kts | 192° |
| 2026-05-09 09:03 | 48.95482 | 21.82922 | 34121 ft | 402 kts | 192° |
| 2026-05-09 09:03 | 48.89928 | 21.81774 | 34115 ft | 405 kts | 186° |
| 2026-05-09 09:04 | 48.84231 | 21.82599 | 34113 ft | 411 kts | 177° |
| 2026-05-09 09:04 | 48.78595 | 21.83811 | 34114 ft | 411 kts | 177° |
| 2026-05-09 09:05 | 48.72921 | 21.85009 | 34099 ft | 411 kts | 177° |
| 2026-05-09 09:05 | 48.67208 | 21.86212 | 34099 ft | 412 kts | 177° |
| 2026-05-09 09:06 | 48.61530 | 21.87409 | 34094 ft | 412 kts | 177° |
| 2026-05-09 09:06 | 48.55813 | 21.88610 | 34098 ft | 412 kts | 177° |
| 2026-05-09 09:07 | 48.50140 | 21.89796 | 34081 ft | 412 kts | 176° |
| 2026-05-09 09:07 | 48.44453 | 21.90990 | 34091 ft | 413 kts | 176° |
| 2026-05-09 09:08 | 48.38757 | 21.92183 | 34088 ft | 413 kts | 176° |
| 2026-05-09 09:08 | 48.33113 | 21.94069 | 34090 ft | 419 kts | 168° |
| 2026-05-09 09:09 | 48.27526 | 21.96575 | 34064 ft | 419 kts | 168° |
| 2026-05-09 09:09 | 48.21942 | 21.99070 | 34085 ft | 418 kts | 168° |
| 2026-05-09 09:10 | 48.17293 | 22.01128 | 34103 ft | 418 kts | 168° |
| 2026-05-09 09:10 | 48.11675 | 22.03600 | 34105 ft | 418 kts | 168° |
| 2026-05-09 09:11 | 48.06119 | 22.06051 | 34107 ft | 418 kts | 168° |
| 2026-05-09 09:11 | 48.00545 | 22.08516 | 34100 ft | 418 kts | 168° |
| 2026-05-09 09:12 | 47.94960 | 22.10966 | 34102 ft | 418 kts | 168° |
| 2026-05-09 09:12 | 47.89378 | 22.13408 | 34066 ft | 418 kts | 168° |
| 2026-05-09 09:13 | 47.83783 | 22.15857 | 34062 ft | 420 kts | 168° |
| 2026-05-09 09:13 | 47.78170 | 22.18312 | 34057 ft | 421 kts | 168° |
| 2026-05-09 09:14 | 47.72541 | 22.20768 | 34062 ft | 422 kts | 168° |
| 2026-05-09 09:14 | 47.66898 | 22.23224 | 34072 ft | 422 kts | 168° |
| 2026-05-09 09:15 | 47.61252 | 22.25667 | 34087 ft | 423 kts | 168° |
| 2026-05-09 09:15 | 47.55555 | 22.28132 | 34072 ft | 423 kts | 168° |
| 2026-05-09 09:16 | 47.49902 | 22.30568 | 34081 ft | 422 kts | 167° |
| 2026-05-09 09:16 | 47.41430 | 22.34215 | 34092 ft | 422 kts | 167° |
| 2026-05-09 09:17 | 47.35776 | 22.36646 | 34094 ft | 422 kts | 167° |
| 2026-05-09 09:17 | 47.30124 | 22.39062 | 34094 ft | 422 kts | 167° |
| 2026-05-09 09:18 | 47.24468 | 22.41479 | 34083 ft | 423 kts | 167° |
| 2026-05-09 09:18 | 47.18814 | 22.43902 | 34067 ft | 423 kts | 167° |
| 2026-05-09 09:19 | 47.13139 | 22.46318 | 34064 ft | 425 kts | 167° |
| 2026-05-09 09:19 | 47.07458 | 22.48721 | 34386 ft | 425 kts | 167° |
| 2026-05-09 09:20 | 47.04612 | 22.49925 | 34620 ft | 426 kts | 167° |
| 2026-05-09 09:20 | 47.01761 | 22.51132 | 34858 ft | 427 kts | 167° |
| 2026-05-09 09:20 | 46.98899 | 22.52340 | 35023 ft | 429 kts | 167° |
| 2026-05-09 09:20 | 46.96015 | 22.53554 | 35070 ft | 431 kts | 167° |
| 2026-05-09 09:21 | 46.90288 | 22.55967 | 35073 ft | 431 kts | 167° |
| 2026-05-09 09:21 | 46.84510 | 22.58400 | 35057 ft | 431 kts | 167° |
| 2026-05-09 09:22 | 46.78734 | 22.60829 | 35068 ft | 433 kts | 167° |
| 2026-05-09 09:22 | 46.72937 | 22.63259 | 35081 ft | 434 kts | 167° |
| 2026-05-09 09:23 | 46.67125 | 22.65692 | 35081 ft | 434 kts | 167° |
| 2026-05-09 09:23 | 46.61318 | 22.68113 | 35089 ft | 435 kts | 167° |
| 2026-05-09 09:24 | 46.55502 | 22.70526 | 35088 ft | 434 kts | 167° |
| 2026-05-09 09:24 | 46.49688 | 22.72938 | 35084 ft | 435 kts | 167° |
| 2026-05-09 09:25 | 46.43868 | 22.75351 | 35087 ft | 435 kts | 167° |
| 2026-05-09 09:25 | 46.38038 | 22.77764 | 35087 ft | 435 kts | 167° |
| 2026-05-09 09:26 | 46.32213 | 22.80161 | 35081 ft | 435 kts | 167° |
| 2026-05-09 09:26 | 46.26393 | 22.82566 | 35078 ft | 435 kts | 167° |
| 2026-05-09 09:27 | 46.20589 | 22.84950 | 35089 ft | 436 kts | 167° |
| 2026-05-09 09:27 | 46.14739 | 22.87347 | 35078 ft | 436 kts | 166° |
| 2026-05-09 09:28 | 46.08895 | 22.89738 | 35078 ft | 436 kts | 166° |
| 2026-05-09 09:28 | 46.03047 | 22.92118 | 35089 ft | 436 kts | 166° |
| 2026-05-09 09:29 | 45.97226 | 22.94481 | 35092 ft | 436 kts | 166° |
| 2026-05-09 09:29 | 45.91378 | 22.96860 | 35101 ft | 436 kts | 166° |
| 2026-05-09 09:30 | 45.85523 | 22.99236 | 35096 ft | 436 kts | 166° |
| 2026-05-09 09:30 | 45.79673 | 23.01602 | 35083 ft | 437 kts | 166° |
| 2026-05-09 09:31 | 45.73807 | 23.03964 | 35079 ft | 437 kts | 166° |
| 2026-05-09 09:32 | 45.65005 | 23.07508 | 35092 ft | 438 kts | 166° |
| 2026-05-09 09:32 | 45.59116 | 23.09872 | 35090 ft | 439 kts | 166° |
| 2026-05-09 09:33 | 45.53233 | 23.12230 | 35094 ft | 439 kts | 166° |
| 2026-05-09 09:33 | 45.47348 | 23.14578 | 35090 ft | 438 kts | 166° |
| 2026-05-09 09:34 | 45.41458 | 23.16920 | 35070 ft | 439 kts | 167° |
| 2026-05-09 09:34 | 45.35569 | 23.19264 | 35067 ft | 440 kts | 166° |
| 2026-05-09 09:36 | 45.11923 | 23.28615 | 35042 ft | 442 kts | 166° |
| 2026-05-09 09:37 | 45.05950 | 23.30968 | 35039 ft | 443 kts | 166° |
| 2026-05-09 09:37 | 44.99997 | 23.33298 | 35040 ft | 444 kts | 166° |
| 2026-05-09 09:38 | 44.94080 | 23.35607 | 35039 ft | 444 kts | 166° |
| 2026-05-09 09:38 | 44.88107 | 23.37947 | 35026 ft | 447 kts | 167° |
| 2026-05-09 09:39 | 44.82099 | 23.40295 | 35024 ft | 449 kts | 167° |
| 2026-05-09 09:39 | 44.77052 | 23.42263 | 35037 ft | 449 kts | 167° |
| 2026-05-09 09:40 | 44.71017 | 23.44611 | 35038 ft | 450 kts | 167° |
| 2026-05-09 09:40 | 44.64969 | 23.46961 | 35033 ft | 452 kts | 167° |
| 2026-05-09 09:41 | 44.58896 | 23.49312 | 35033 ft | 453 kts | 167° |
| 2026-05-09 09:41 | 44.52811 | 23.51661 | 35029 ft | 453 kts | 167° |
| 2026-05-09 09:42 | 44.46721 | 23.54001 | 35021 ft | 454 kts | 167° |
| 2026-05-09 09:42 | 44.40617 | 23.56347 | 35024 ft | 456 kts | 167° |
| 2026-05-09 09:43 | 44.34479 | 23.58699 | 35047 ft | 457 kts | 168° |
| 2026-05-09 09:43 | 44.28330 | 23.61051 | 35041 ft | 458 kts | 167° |
| 2026-05-09 09:44 | 44.22183 | 23.63401 | 35046 ft | 457 kts | 167° |
| 2026-05-09 09:44 | 44.16042 | 23.65740 | 35055 ft | 458 kts | 167° |
| 2026-05-09 09:45 | 44.09894 | 23.68077 | 35052 ft | 458 kts | 168° |
| 2026-05-09 09:45 | 44.03733 | 23.70404 | 35048 ft | 459 kts | 168° |
| 2026-05-09 09:46 | 43.97599 | 23.72720 | 35038 ft | 459 kts | 168° |
| 2026-05-09 09:46 | 43.91426 | 23.75054 | 35041 ft | 459 kts | 168° |
| 2026-05-09 09:47 | 43.85259 | 23.77385 | 35037 ft | 459 kts | 168° |
| 2026-05-09 09:47 | 43.79073 | 23.79592 | 35024 ft | 458 kts | 174° |
| 2026-05-09 09:48 | 43.72741 | 23.80080 | 35020 ft | 453 kts | 183° |
| 2026-05-09 09:48 | 43.66438 | 23.80150 | 35026 ft | 453 kts | 183° |
| 2026-05-09 09:49 | 43.60165 | 23.80221 | 35025 ft | 454 kts | 183° |
| 2026-05-09 09:49 | 43.53839 | 23.80305 | 35033 ft | 455 kts | 183° |
| 2026-05-09 09:50 | 43.47513 | 23.80385 | 35035 ft | 455 kts | 183° |
| 2026-05-09 09:50 | 43.41183 | 23.80455 | 35037 ft | 455 kts | 183° |
| 2026-05-09 09:51 | 43.34850 | 23.80525 | 35036 ft | 455 kts | 183° |
| 2026-05-09 09:51 | 43.28506 | 23.80609 | 35046 ft | 455 kts | 183° |
| 2026-05-09 09:52 | 43.22171 | 23.80687 | 35024 ft | 456 kts | 183° |
| 2026-05-09 09:52 | 43.15825 | 23.80769 | 35028 ft | 456 kts | 183° |
| 2026-05-09 09:53 | 43.09478 | 23.80853 | 35037 ft | 456 kts | 182° |
| 2026-05-09 09:53 | 43.03124 | 23.80946 | 35029 ft | 456 kts | 182° |
| 2026-05-09 09:54 | 42.96771 | 23.81033 | 35031 ft | 456 kts | 182° |
| 2026-05-09 09:54 | 42.90452 | 23.81101 | 35036 ft | 457 kts | 182° |
| 2026-05-09 09:55 | 42.84093 | 23.81175 | 35038 ft | 457 kts | 182° |
| 2026-05-09 09:55 | 42.77727 | 23.81254 | 35029 ft | 457 kts | 182° |
| 2026-05-09 09:56 | 42.71369 | 23.81333 | 35032 ft | 457 kts | 182° |
| 2026-05-09 09:56 | 42.65011 | 23.81991 | 35037 ft | 462 kts | 169° |
| 2026-05-09 09:57 | 42.58769 | 23.84143 | 35036 ft | 463 kts | 168° |
| 2026-05-09 09:57 | 42.52526 | 23.86309 | 35037 ft | 462 kts | 168° |
| 2026-05-09 09:58 | 42.46294 | 23.88461 | 35043 ft | 462 kts | 168° |
| 2026-05-09 09:58 | 42.40089 | 23.90586 | 35033 ft | 462 kts | 168° |
| 2026-05-09 09:59 | 42.33844 | 23.92714 | 35037 ft | 462 kts | 168° |
| 2026-05-09 09:59 | 42.27581 | 23.94710 | 35038 ft | 461 kts | 171° |
| 2026-05-09 10:00 | 42.21271 | 23.96234 | 35033 ft | 460 kts | 173° |
| 2026-05-09 10:00 | 42.14940 | 23.97630 | 35035 ft | 461 kts | 173° |
| 2026-05-09 10:01 | 42.08664 | 23.99103 | 35038 ft | 461 kts | 172° |
| 2026-05-09 10:01 | 42.02328 | 24.00659 | 35032 ft | 461 kts | 172° |
| 2026-05-09 10:02 | 41.95991 | 24.01913 | 35032 ft | 460 kts | 175° |
| 2026-05-09 10:02 | 41.89668 | 24.02773 | 35038 ft | 459 kts | 176° |
| 2026-05-09 10:03 | 41.83307 | 24.03600 | 35036 ft | 459 kts | 176° |
| 2026-05-09 10:03 | 41.76949 | 24.04530 | 35038 ft | 459 kts | 175° |
| 2026-05-09 10:04 | 41.70593 | 24.05519 | 35040 ft | 459 kts | 175° |
| 2026-05-09 10:04 | 41.64235 | 24.06491 | 35042 ft | 459 kts | 175° |
| 2026-05-09 10:05 | 41.57892 | 24.07447 | 35038 ft | 458 kts | 176° |
| 2026-05-09 10:05 | 41.51557 | 24.08397 | 35044 ft | 458 kts | 176° |
| 2026-05-09 10:06 | 41.45229 | 24.09336 | 35049 ft | 457 kts | 176° |
| 2026-05-09 10:06 | 41.38907 | 24.10270 | 35041 ft | 457 kts | 176° |
| 2026-05-09 10:07 | 41.32581 | 24.11213 | 35047 ft | 456 kts | 176° |
| 2026-05-09 10:07 | 41.26267 | 24.12156 | 35047 ft | 456 kts | 176° |
| 2026-05-09 10:08 | 41.19953 | 24.13092 | 35040 ft | 457 kts | 176° |
| 2026-05-09 10:08 | 41.13651 | 24.14026 | 35040 ft | 456 kts | 176° |
| 2026-05-09 10:09 | 41.07336 | 24.14962 | 35041 ft | 456 kts | 176° |
| 2026-05-09 10:09 | 41.01022 | 24.15892 | 35033 ft | 456 kts | 176° |
| 2026-05-09 10:10 | 40.94701 | 24.16815 | 35033 ft | 457 kts | 176° |
| 2026-05-09 10:10 | 40.88375 | 24.17741 | 35034 ft | 458 kts | 176° |
| 2026-05-09 10:11 | 40.82038 | 24.18671 | 35040 ft | 458 kts | 176° |
| 2026-05-09 10:11 | 40.75739 | 24.19589 | 35037 ft | 459 kts | 176° |
| 2026-05-09 10:12 | 40.69383 | 24.20521 | 35037 ft | 460 kts | 176° |
| 2026-05-09 10:12 | 40.63022 | 24.21459 | 35042 ft | 460 kts | 176° |
| 2026-05-09 10:13 | 40.56655 | 24.22387 | 35034 ft | 461 kts | 176° |
| 2026-05-09 10:13 | 40.50270 | 24.23306 | 35037 ft | 461 kts | 176° |
| 2026-05-09 10:14 | 40.43879 | 24.24229 | 35036 ft | 462 kts | 176° |
| 2026-05-09 10:14 | 40.37484 | 24.25155 | 35034 ft | 463 kts | 177° |
| 2026-05-09 10:15 | 40.31074 | 24.26079 | 35037 ft | 463 kts | 177° |
| 2026-05-09 10:15 | 40.24657 | 24.27002 | 35039 ft | 464 kts | 177° |
| 2026-05-09 10:16 | 40.18243 | 24.27923 | 35042 ft | 464 kts | 177° |
| 2026-05-09 10:16 | 40.12850 | 24.28706 | 35047 ft | 465 kts | 177° |
| 2026-05-09 10:17 | 40.06423 | 24.29633 | 35050 ft | 465 kts | 177° |
| 2026-05-09 10:17 | 40.00035 | 24.30544 | 35058 ft | 465 kts | 177° |
| 2026-05-09 10:18 | 39.93564 | 24.31463 | 35038 ft | 465 kts | 178° |
| 2026-05-09 10:18 | 39.87122 | 24.32374 | 35035 ft | 466 kts | 178° |
| 2026-05-09 10:19 | 39.80666 | 24.33295 | 35040 ft | 467 kts | 178° |
| 2026-05-09 10:19 | 39.74200 | 24.34216 | 35032 ft | 467 kts | 178° |
| 2026-05-09 10:20 | 39.67773 | 24.35120 | 35036 ft | 468 kts | 178° |
| 2026-05-09 10:20 | 39.61303 | 24.36032 | 35038 ft | 468 kts | 178° |
| 2026-05-09 10:21 | 39.54786 | 24.36957 | 35028 ft | 468 kts | 178° |
| 2026-05-09 10:21 | 39.48303 | 24.37877 | 35029 ft | 468 kts | 179° |
| 2026-05-09 10:22 | 39.41857 | 24.38776 | 35026 ft | 469 kts | 179° |
| 2026-05-09 10:22 | 39.35370 | 24.39680 | 35036 ft | 469 kts | 179° |
| 2026-05-09 10:23 | 39.28884 | 24.40590 | 35031 ft | 469 kts | 179° |
| 2026-05-09 10:23 | 39.22356 | 24.41500 | 35037 ft | 469 kts | 179° |
| 2026-05-09 10:24 | 39.15870 | 24.42410 | 35044 ft | 469 kts | 179° |
| 2026-05-09 10:24 | 39.09421 | 24.43317 | 35020 ft | 469 kts | 180° |
| 2026-05-09 10:25 | 39.02930 | 24.44228 | 35025 ft | 469 kts | 180° |
| 2026-05-09 10:25 | 38.96392 | 24.45129 | 35034 ft | 469 kts | 180° |
| 2026-05-09 10:26 | 38.89896 | 24.46025 | 35023 ft | 469 kts | 180° |
| 2026-05-09 10:26 | 38.83398 | 24.46924 | 35028 ft | 470 kts | 180° |
| 2026-05-09 10:27 | 38.76897 | 24.47821 | 35033 ft | 470 kts | 181° |
| 2026-05-09 10:27 | 38.70394 | 24.48705 | 35035 ft | 470 kts | 181° |
| 2026-05-09 10:28 | 38.63877 | 24.49594 | 35011 ft | 470 kts | 182° |
| 2026-05-09 10:28 | 38.57369 | 24.50499 | 35019 ft | 471 kts | 182° |
| 2026-05-09 10:29 | 38.50845 | 24.51404 | 35025 ft | 471 kts | 182° |
| 2026-05-09 10:29 | 38.44317 | 24.52290 | 35009 ft | 471 kts | 183° |
| 2026-05-09 10:30 | 38.37821 | 24.53172 | 35021 ft | 472 kts | 183° |
| 2026-05-09 10:30 | 38.31293 | 24.54064 | 35033 ft | 472 kts | 183° |
| 2026-05-09 10:31 | 38.24756 | 24.54955 | 35031 ft | 472 kts | 183° |
| 2026-05-09 10:31 | 38.18200 | 24.55876 | 35001 ft | 479 kts | 180° |